Time;durP1;ratioP1;P1;durP2;ratioP2;P2;SDS_P1;SDS_P2;PMS_P1;PMS_P2;Temp;Humidity;BMP_temperature;BMP_pressure;BME280_temperature;BME280_humidity;BME280_pressure;Samples;Min_cycle;Max_cycle;Signal;HPM_P1;HPM_P2
2022/06/13 00:00:34;;;;;;;10.07;6.87;;;;;;;-141.29;100.00;58932.97;5093024;28;20204;-76
2022/06/13 00:03:03;;;;;;;9.07;6.70;;;;;;;-141.29;100.00;58932.97;5092749;28;20591;-75
2022/06/13 00:05:29;;;;;;;10.93;6.70;;;;;;;-141.29;100.00;58932.97;5092868;28;20280;-75
2022/06/13 00:07:57;;;;;;;7.40;6.63;;;;;;;-141.29;100.00;58932.97;5092202;28;20307;-75
2022/06/13 00:10:24;;;;;;;10.53;6.70;;;;;;;-141.29;100.00;58932.97;5092608;28;20196;-76
2022/06/13 00:12:51;;;;;;;7.80;6.70;;;;;;;-141.29;100.00;58932.97;5092708;28;20214;-76
2022/06/13 00:15:18;;;;;;;10.00;6.87;;;;;;;-141.29;100.00;58932.97;5092291;28;20207;-74
2022/06/13 00:17:46;;;;;;;11.83;7.07;;;;;;;-141.29;100.00;58932.97;5092651;28;20207;-76
2022/06/13 00:20:15;;;;;;;10.03;6.30;;;;;;;-141.29;100.00;58932.97;5092472;28;20694;-76
2022/06/13 00:22:42;;;;;;;8.07;6.67;;;;;;;-141.29;100.00;58932.97;5074620;28;20226;-75
2022/06/13 00:25:10;;;;;;;10.47;6.90;;;;;;;-141.29;100.00;58932.97;5092177;28;20223;-75
2022/06/13 00:27:37;;;;;;;10.00;6.67;;;;;;;-141.29;100.00;58932.97;5092472;28;20195;-78
2022/06/13 00:30:07;;;;;;;7.43;6.60;;;;;;;-141.29;100.00;58932.97;5092348;28;20207;-76
2022/06/13 00:32:35;;;;;;;8.93;7.03;;;;;;;-141.29;100.00;58932.97;5092955;28;20207;-75
2022/06/13 00:35:02;;;;;;;7.97;6.93;;;;;;;-141.29;100.00;58932.97;5094135;28;20207;-76
2022/06/13 00:37:31;;;;;;;10.60;7.00;;;;;;;-141.29;100.00;58932.97;5093762;28;20657;-75
2022/06/13 00:39:58;;;;;;;9.87;6.57;;;;;;;-141.29;100.00;58932.97;5092482;28;20211;-74
2022/06/13 00:42:27;;;;;;;7.80;6.97;;;;;;;-141.29;100.00;58932.97;5092345;28;20215;-76
2022/06/13 00:45:14;;;;;;;11.17;6.60;;;;;;;-141.29;100.00;58932.97;5092080;28;20241;-75
2022/06/13 00:47:44;;;;;;;8.60;6.40;;;;;;;-141.29;100.00;58932.97;5092437;28;20195;-75
2022/06/13 00:50:14;;;;;;;7.97;6.73;;;;;;;-141.29;100.00;58932.97;5084053;28;20273;-77
2022/06/13 00:52:47;;;;;;;10.37;6.70;;;;;;;-141.29;100.00;58932.97;5088905;28;20199;-75
2022/06/13 00:55:22;;;;;;;14.30;6.53;;;;;;;-141.29;100.00;58932.97;5091829;28;20199;-75
2022/06/13 00:57:49;;;;;;;8.07;6.40;;;;;;;-141.29;100.00;58932.97;5091801;28;20227;-75
2022/06/13 01:00:18;;;;;;;6.70;6.00;;;;;;;-141.29;100.00;58932.97;5090876;28;20199;-75
2022/06/13 01:02:47;;;;;;;8.10;6.47;;;;;;;-141.29;100.00;58932.97;5091813;28;20235;-76
2022/06/13 01:05:16;;;;;;;11.97;7.37;;;;;;;-141.29;100.00;58932.97;5091242;28;20231;-75
2022/06/13 01:07:45;;;;;;;8.73;7.07;;;;;;;-141.29;100.00;58932.97;5090587;28;20205;-75
2022/06/13 01:12:57;;;;;;;9.83;5.93;;;;;;;-141.29;100.00;58932.97;5091813;28;20728;-75
2022/06/13 01:15:46;;;;;;;8.23;6.53;;;;;;;-141.29;100.00;58932.97;5091694;28;20202;-75
2022/06/13 01:18:33;;;;;;;15.20;6.97;;;;;;;-141.29;100.00;58932.97;5088365;28;20212;-75
2022/06/13 01:21:11;;;;;;;10.50;7.07;;;;;;;-141.29;100.00;58932.97;5091701;28;20615;-75
2022/06/13 01:23:57;;;;;;;10.20;7.67;;;;;;;-141.29;100.00;58932.97;5091813;28;20203;-75
2022/06/13 01:26:58;;;;;;;9.60;7.23;;;;;;;-141.29;100.00;58932.97;5080255;28;20605;-75
2022/06/13 01:29:40;;;;;;;10.43;7.17;;;;;;;-141.29;100.00;58932.97;5091679;28;20195;-74
2022/06/13 01:32:21;;;;;;;8.20;6.97;;;;;;;-141.29;100.00;58932.97;5091657;28;20207;-74
2022/06/13 01:35:02;;;;;;;8.83;6.93;;;;;;;-141.29;100.00;58932.97;5091783;28;20211;-76
2022/06/13 01:37:40;;;;;;;12.63;7.30;;;;;;;-141.29;100.00;58932.97;5091308;28;20714;-75
2022/06/13 01:40:18;;;;;;;10.40;8.93;;;;;;;-141.29;100.00;58932.97;5091467;28;20298;-76
2022/06/13 01:42:56;;;;;;;10.03;7.77;;;;;;;-141.29;100.00;58932.97;5091442;28;20666;-75
2022/06/13 01:45:36;;;;;;;10.17;7.70;;;;;;;-141.29;100.00;58932.97;5091832;28;20242;-74
2022/06/13 01:48:09;;;;;;;9.53;8.20;;;;;;;-141.29;100.00;58932.97;5091551;28;20202;-75
2022/06/13 01:50:45;;;;;;;10.23;7.93;;;;;;;-141.29;100.00;58932.97;5091577;28;20648;-75
2022/06/13 01:53:21;;;;;;;8.17;7.17;;;;;;;-141.29;100.00;58932.97;5091187;28;20249;-75
2022/06/13 01:55:57;;;;;;;11.10;8.03;;;;;;;-141.29;100.00;58932.97;5091526;28;20203;-75
2022/06/13 01:58:32;;;;;;;10.63;7.33;;;;;;;-141.29;100.00;58932.97;5090263;28;20196;-75
2022/06/13 02:01:07;;;;;;;10.77;8.30;;;;;;;-141.29;100.00;58932.97;5091403;28;20195;-75
2022/06/13 02:03:43;;;;;;;8.77;7.50;;;;;;;-141.29;100.00;58932.97;5091426;28;20210;-77
2022/06/13 02:06:16;;;;;;;10.57;7.80;;;;;;;-141.29;100.00;58932.97;5091133;28;20231;-76
2022/06/13 02:08:50;;;;;;;8.37;7.47;;;;;;;-141.29;100.00;58932.97;5091304;28;20207;-74
2022/06/13 02:11:22;;;;;;;10.83;8.13;;;;;;;-141.29;100.00;58932.97;5091347;28;20204;-76
2022/06/13 02:13:54;;;;;;;9.53;6.90;;;;;;;-141.29;100.00;58932.97;5091109;28;20784;-75
2022/06/13 02:16:29;;;;;;;13.03;6.60;;;;;;;-141.29;100.00;58932.97;5091309;28;20208;-76
2022/06/13 02:19:04;;;;;;;9.20;6.87;;;;;;;-141.29;100.00;58932.97;5091081;28;20310;-76
2022/06/13 02:21:38;;;;;;;10.07;6.20;;;;;;;-141.29;100.00;58932.97;5091472;28;20210;-75
2022/06/13 02:24:10;;;;;;;8.87;6.60;;;;;;;-141.29;100.00;58932.97;5091168;28;20215;-76
2022/06/13 02:26:40;;;;;;;7.10;6.33;;;;;;;-141.29;100.00;58932.97;5090959;28;20231;-75
2022/06/13 02:29:11;;;;;;;8.83;6.20;;;;;;;-141.29;100.00;58932.97;5090788;28;20207;-77
2022/06/13 02:31:44;;;;;;;7.97;5.97;;;;;;;-141.29;100.00;58932.97;5093493;28;20211;-74
2022/06/13 02:34:19;;;;;;;9.73;7.07;;;;;;;-141.29;100.00;58932.97;5096144;28;20196;-75
2022/06/13 02:36:53;;;;;;;8.20;6.40;;;;;;;-141.29;100.00;58932.97;5094903;28;20266;-75
2022/06/13 02:39:25;;;;;;;7.80;6.80;;;;;;;-141.29;100.00;58932.97;5094539;28;20236;-74
2022/06/13 02:41:59;;;;;;;12.07;6.90;;;;;;;-141.29;100.00;58932.97;5094577;28;20667;-75
2022/06/13 02:44:31;;;;;;;9.33;6.97;;;;;;;-141.29;100.00;58932.97;5094271;28;20302;-75
2022/06/13 02:47:03;;;;;;;8.67;6.70;;;;;;;-141.29;100.00;58932.97;5094355;28;20734;-75
2022/06/13 02:49:38;;;;;;;9.07;6.80;;;;;;;-141.29;100.00;58932.97;5094271;28;20604;-76
2022/06/13 02:52:14;;;;;;;9.13;7.63;;;;;;;-141.29;100.00;58932.97;5094236;28;20207;-77
2022/06/13 02:54:48;;;;;;;9.70;7.23;;;;;;;-141.29;100.00;58932.97;5094104;28;20671;-76
2022/06/13 02:57:37;;;;;;;7.87;6.63;;;;;;;-141.29;100.00;58932.97;5094278;28;20592;-76
2022/06/13 03:00:14;;;;;;;8.57;6.83;;;;;;;-141.29;100.00;58932.97;5089429;28;20196;-76
2022/06/13 03:02:48;;;;;;;10.20;7.07;;;;;;;-141.29;100.00;58932.97;5094515;28;20199;-76
2022/06/13 03:05:39;;;;;;;12.13;6.80;;;;;;;-141.29;100.00;58932.97;5093893;28;20199;-75
2022/06/13 03:08:20;;;;;;;11.80;7.20;;;;;;;-141.29;100.00;58932.97;5093952;28;20593;-77
2022/06/13 03:11:03;;;;;;;13.87;7.57;;;;;;;-141.29;100.00;58932.97;5094704;28;20247;-75
2022/06/13 03:13:38;;;;;;;9.23;7.23;;;;;;;-141.29;100.00;58932.97;5075768;28;20242;-75
2022/06/13 03:16:15;;;;;;;9.07;6.97;;;;;;;-141.29;100.00;58932.97;5093898;28;20209;-76
2022/06/13 03:18:48;;;;;;;9.50;7.00;;;;;;;-141.29;100.00;58932.97;5093615;28;20199;-75
2022/06/13 03:21:22;;;;;;;9.33;6.37;;;;;;;-141.29;100.00;58932.97;5093879;28;20204;-76
2022/06/13 03:23:52;;;;;;;9.60;7.43;;;;;;;-141.29;100.00;58932.97;5093161;28;20578;-75
2022/06/13 03:26:23;;;;;;;11.57;7.40;;;;;;;-141.29;100.00;58932.97;5094309;28;20616;-75
2022/06/13 03:28:56;;;;;;;10.10;6.90;;;;;;;-141.29;100.00;58932.97;5093617;28;20200;-76
2022/06/13 03:31:29;;;;;;;11.73;7.57;;;;;;;-141.29;100.00;58932.97;5093607;28;20203;-76
2022/06/13 03:34:00;;;;;;;9.33;6.60;;;;;;;-141.29;100.00;58932.97;5093280;28;20202;-75
2022/06/13 03:36:35;;;;;;;10.90;7.27;;;;;;;-141.29;100.00;58932.97;5093242;28;20235;-76
2022/06/13 03:39:10;;;;;;;10.27;6.83;;;;;;;-141.29;100.00;58932.97;5093108;28;20223;-74
2022/06/13 03:41:42;;;;;;;11.97;7.60;;;;;;;-141.29;100.00;58932.97;5093326;28;20203;-76
2022/06/13 03:44:13;;;;;;;9.33;7.70;;;;;;;-141.29;100.00;58932.97;5091504;28;20234;-75
2022/06/13 03:46:46;;;;;;;10.00;7.87;;;;;;;-141.29;100.00;58932.97;5092752;28;20231;-74
2022/06/13 03:49:21;;;;;;;9.83;7.67;;;;;;;-141.29;100.00;58932.97;5093159;28;20195;-76
2022/06/13 03:51:53;;;;;;;11.23;7.33;;;;;;;-141.29;100.00;58932.97;5093300;28;20214;-76
2022/06/13 03:54:27;;;;;;;9.83;7.83;;;;;;;-141.29;100.00;58932.97;5092933;28;20667;-76
2022/06/13 03:57:02;;;;;;;10.83;7.43;;;;;;;-141.29;100.00;58932.97;5093308;28;20221;-75
2022/06/13 03:59:35;;;;;;;10.73;7.63;;;;;;;-141.29;100.00;58932.97;5092585;28;20206;-76
2022/06/13 04:02:05;;;;;;;10.57;8.53;;;;;;;-141.29;100.00;58932.97;5079659;28;20196;-75
2022/06/13 04:04:36;;;;;;;11.27;8.97;;;;;;;-141.29;100.00;58932.97;5092900;28;20200;-75
2022/06/13 04:07:05;;;;;;;12.23;8.13;;;;;;;-141.29;100.00;58932.97;5079716;28;20227;-76
2022/06/13 04:09:37;;;;;;;14.87;8.20;;;;;;;-141.29;100.00;58932.97;5092786;28;20200;-76
2022/06/13 04:12:17;;;;;;;14.80;9.13;;;;;;;-141.29;100.00;58932.97;5092703;28;20200;-74
2022/06/13 04:15:00;;;;;;;12.03;9.17;;;;;;;-141.29;100.00;58932.97;5080979;28;20195;-74
2022/06/13 04:17:32;;;;;;;12.63;8.73;;;;;;;-141.29;100.00;58932.97;5094917;28;20206;-75
2022/06/13 04:20:10;;;;;;;14.73;10.93;;;;;;;-141.29;100.00;58932.97;5092787;28;20682;-78
2022/06/13 04:22:48;;;;;;;15.40;11.30;;;;;;;-141.29;100.00;58932.97;5092645;28;20302;-75
2022/06/13 04:25:28;;;;;;;15.20;11.37;;;;;;;-141.29;100.00;58932.97;5092448;28;20202;-76
2022/06/13 04:28:02;;;;;;;15.13;11.53;;;;;;;-141.29;100.00;58932.97;5092264;28;20200;-77
2022/06/13 04:30:32;;;;;;;12.87;10.50;;;;;;;-141.29;100.00;58932.97;5092393;28;20209;-76
2022/06/13 04:33:07;;;;;;;15.07;11.93;;;;;;;-141.29;100.00;58932.97;5092241;28;20204;-76
2022/06/13 04:35:36;;;;;;;15.57;11.97;;;;;;;-141.29;100.00;58932.97;5092352;28;20199;-75
2022/06/13 04:38:09;;;;;;;16.73;11.80;;;;;;;-141.29;100.00;58932.97;5092150;28;20236;-76
2022/06/13 04:40:40;;;;;;;22.57;16.57;;;;;;;-141.29;100.00;58932.97;5092297;28;20663;-75
2022/06/13 04:43:09;;;;;;;18.70;12.73;;;;;;;-141.29;100.00;58932.97;5092258;28;20204;-76
2022/06/13 04:45:46;;;;;;;16.43;11.73;;;;;;;-141.29;100.00;58932.97;5091906;28;20656;-75
2022/06/13 04:48:13;;;;;;;16.30;11.90;;;;;;;-141.29;100.00;58932.97;5091718;28;20203;-76
2022/06/13 04:50:44;;;;;;;14.80;10.30;;;;;;;-141.29;100.00;58932.97;5092242;28;20203;-74
2022/06/13 04:53:18;;;;;;;14.70;11.10;;;;;;;-141.29;100.00;58932.97;5091855;28;20199;-74
2022/06/13 04:55:48;;;;;;;12.37;10.10;;;;;;;-141.29;100.00;58932.97;5091883;28;20199;-74
2022/06/13 04:58:24;;;;;;;20.47;10.03;;;;;;;-141.29;100.00;58932.97;5090956;28;20200;-77
2022/06/13 05:00:57;;;;;;;13.77;10.00;;;;;;;-141.29;100.00;58932.97;5091995;28;20248;-75
2022/06/13 05:03:29;;;;;;;14.13;10.23;;;;;;;-141.29;100.00;58932.97;5092027;28;20203;-75
2022/06/13 05:06:01;;;;;;;13.00;9.30;;;;;;;-141.29;100.00;58932.97;5092220;28;20304;-74
2022/06/13 05:08:32;;;;;;;12.17;8.93;;;;;;;-141.29;100.00;58932.97;5091475;28;20210;-76
2022/06/13 05:11:05;;;;;;;14.93;9.73;;;;;;;-141.29;100.00;58932.97;5091928;28;20215;-74
2022/06/13 05:13:33;;;;;;;13.23;9.47;;;;;;;-141.29;100.00;58932.97;5091764;28;20210;-75
2022/06/13 05:16:08;;;;;;;14.70;9.70;;;;;;;-141.29;100.00;58932.97;5091797;28;20268;-75
2022/06/13 05:18:50;;;;;;;11.57;9.57;;;;;;;-141.29;100.00;58932.97;5091611;28;20642;-75
2022/06/13 05:21:32;;;;;;;14.23;9.90;;;;;;;-141.29;100.00;58932.97;5079632;28;20204;-75
2022/06/13 05:24:14;;;;;;;11.83;10.63;;;;;;;-141.29;100.00;58932.97;5091258;28;20199;-75
2022/06/13 05:26:41;;;;;;;14.03;11.23;;;;;;;-141.29;100.00;58932.97;5091605;28;20724;-75
2022/06/13 05:29:09;;;;;;;14.77;10.60;;;;;;;-141.29;100.00;58932.97;5091334;28;20200;-75
2022/06/13 05:31:38;;;;;;;14.37;10.43;;;;;;;-141.29;100.00;58932.97;5091702;28;20594;-75
2022/06/13 05:34:11;;;;;;;14.80;11.10;;;;;;;-141.29;100.00;58932.97;5091373;28;20195;-75
2022/06/13 05:36:38;;;;;;;19.33;11.43;;;;;;;-141.29;100.00;58932.97;5091582;28;20231;-76
2022/06/13 05:39:08;;;;;;;14.90;10.87;;;;;;;-141.29;100.00;58932.97;5091372;28;20579;-75
2022/06/13 05:41:35;;;;;;;12.83;10.70;;;;;;;-141.29;100.00;58932.97;5091054;28;20214;-75
2022/06/13 05:44:03;;;;;;;14.80;10.37;;;;;;;-141.29;100.00;58932.97;5091190;28;20228;-75
2022/06/13 05:46:35;;;;;;;15.53;10.97;;;;;;;-141.29;100.00;58932.97;5090953;28;20219;-77
2022/06/13 05:49:02;;;;;;;14.47;10.60;;;;;;;-141.29;100.00;58932.97;5091074;28;20650;-74
2022/06/13 05:51:30;;;;;;;15.33;11.30;;;;;;;-141.29;100.00;58932.97;5091158;28;20207;-76
2022/06/13 05:53:57;;;;;;;21.57;12.93;;;;;;;-141.29;100.00;58932.97;5090902;28;20196;-74
2022/06/13 05:56:26;;;;;;;18.40;12.07;;;;;;;-141.29;100.00;58932.97;5091415;28;20252;-75
2022/06/13 05:58:55;;;;;;;14.40;10.97;;;;;;;-141.29;100.00;58932.97;5090155;28;20215;-74
2022/06/13 06:01:22;;;;;;;12.87;10.27;;;;;;;-141.29;100.00;58932.97;5090934;28;20584;-75
2022/06/13 06:03:49;;;;;;;17.27;10.90;;;;;;;-141.29;100.00;58932.97;5091107;28;20215;-73
2022/06/13 06:06:21;;;;;;;17.17;11.50;;;;;;;-141.29;100.00;58932.97;5091296;28;20685;-75
2022/06/13 06:08:49;;;;;;;14.80;10.17;;;;;;;-141.29;100.00;58932.97;5094994;28;20377;-75
2022/06/13 06:11:16;;;;;;;11.57;9.37;;;;;;;-141.29;100.00;58932.97;5095061;28;20200;-75
2022/06/13 06:13:44;;;;;;;13.03;9.47;;;;;;;-141.29;100.00;58932.97;5095244;28;20593;-75
2022/06/13 06:16:15;;;;;;;10.30;8.03;;;;;;;-141.29;100.00;58932.97;5094965;28;20283;-75
2022/06/13 06:18:43;;;;;;;17.17;9.73;;;;;;;-141.29;100.00;58932.97;5094462;28;20206;-74
2022/06/13 06:21:10;;;;;;;11.43;8.33;;;;;;;-141.29;100.00;58932.97;5094589;28;20196;-75
2022/06/13 06:23:37;;;;;;;13.73;8.30;;;;;;;-141.29;100.00;58932.97;5094877;28;20203;-75
2022/06/13 06:26:07;;;;;;;9.33;8.30;;;;;;;-141.29;100.00;58932.97;5094986;28;20204;-74
2022/06/13 06:28:35;;;;;;;11.00;7.93;;;;;;;-141.29;100.00;58932.97;5094476;28;20215;-77
2022/06/13 06:31:04;;;;;;;10.87;8.50;;;;;;;-141.29;100.00;58932.97;5094482;28;20207;-74
2022/06/13 06:33:33;;;;;;;14.03;8.20;;;;;;;-141.29;100.00;58932.97;5094500;28;20287;-75
2022/06/13 06:36:01;;;;;;;11.23;8.13;;;;;;;-141.29;100.00;58932.97;5094262;28;20642;-76
2022/06/13 06:38:30;;;;;;;10.40;7.07;;;;;;;-141.29;100.00;58932.97;5094471;28;20234;-76
2022/06/13 06:40:57;;;;;;;12.73;7.70;;;;;;;-141.29;100.00;58932.97;5094192;28;20219;-75
2022/06/13 06:43:24;;;;;;;10.33;7.17;;;;;;;-141.29;100.00;58932.97;5094446;28;20191;-75
2022/06/13 06:45:51;;;;;;;14.27;8.47;;;;;;;-141.29;100.00;58932.97;5094232;28;20219;-74
2022/06/13 06:48:22;;;;;;;10.87;7.10;;;;;;;-141.29;100.00;58932.97;5094129;28;20231;-75
2022/06/13 06:50:50;;;;;;;11.87;7.13;;;;;;;-141.29;100.00;58932.97;5079766;28;20804;-76
2022/06/13 06:53:19;;;;;;;8.27;6.70;;;;;;;-141.29;100.00;58932.97;5094003;28;20195;-76
2022/06/13 07:01:19;;;;;;;13.10;7.37;;;;;;;-141.29;100.00;58932.97;5093983;28;20214;-74
2022/06/13 07:03:48;;;;;;;11.17;6.70;;;;;;;-141.29;100.00;58932.97;5093838;28;20213;-74
2022/06/13 07:06:16;;;;;;;7.83;6.07;;;;;;;-141.29;100.00;58932.97;5094027;28;20239;-76
2022/06/13 07:08:43;;;;;;;7.30;6.17;;;;;;;-141.29;100.00;58932.97;5093570;28;20227;-74
2022/06/13 07:14:03;;;;;;;7.60;6.03;;;;;;;-141.29;100.00;58932.97;5081185;28;20199;-75
2022/06/13 07:16:31;;;;;;;6.73;5.67;;;;;;;-141.29;100.00;58932.97;5093969;28;20204;-75
2022/06/13 07:19:00;;;;;;;6.53;5.60;;;;;;;-141.29;100.00;58932.97;5093586;28;20199;-75
2022/06/13 07:21:27;;;;;;;10.03;6.20;;;;;;;-141.29;100.00;58932.97;5093694;28;20207;-73
2022/06/13 07:23:55;;;;;;;8.97;6.80;;;;;;;-141.29;100.00;58932.97;5093395;28;20658;-74
2022/06/13 07:26:23;;;;;;;12.07;6.77;;;;;;;-141.29;100.00;58932.97;5093953;28;20196;-74
2022/06/13 07:28:49;;;;;;;8.43;6.23;;;;;;;-141.29;100.00;58932.97;5093290;28;20636;-77
2022/06/13 07:31:19;;;;;;;10.57;6.93;;;;;;;-141.29;100.00;58932.97;5093356;28;20208;-75
2022/06/13 07:33:48;;;;;;;8.93;6.70;;;;;;;-141.29;100.00;58932.97;5093195;28;20195;-74
2022/06/13 07:36:17;;;;;;;7.87;6.00;;;;;;;-141.29;100.00;58932.97;5092877;28;20200;-75
2022/06/13 07:38:44;;;;;;;8.40;5.63;;;;;;;-141.29;100.00;58932.97;5093235;28;20558;-73
2022/06/13 07:41:17;;;;;;;5.63;4.60;;;;;;;-141.29;100.00;58932.97;5093047;28;20191;-73
2022/06/13 07:43:44;;;;;;;6.33;5.37;;;;;;;-141.29;100.00;58932.97;5093449;28;20294;-74
2022/06/13 07:46:12;;;;;;;10.20;5.00;;;;;;;-141.29;100.00;58932.97;5093020;28;20196;-76
2022/06/13 07:48:39;;;;;;;6.27;5.17;;;;;;;-141.29;100.00;58932.97;5092803;28;20238;-75
2022/06/13 07:51:06;;;;;;;5.33;4.70;;;;;;;-141.29;100.00;58932.97;5092829;28;20216;-75
2022/06/13 07:53:35;;;;;;;16.47;6.10;;;;;;;-141.29;100.00;58932.97;5093306;28;20238;-74
2022/06/13 07:56:03;;;;;;;6.13;5.07;;;;;;;-141.29;100.00;58932.97;5095594;28;20203;-74
2022/06/13 07:58:32;;;;;;;6.77;5.27;;;;;;;-141.29;100.00;58932.97;5092871;28;20203;-74
2022/06/13 08:01:00;;;;;;;8.97;5.13;;;;;;;-141.29;100.00;58932.97;5078855;28;20266;-74
2022/06/13 08:03:29;;;;;;;5.60;4.77;;;;;;;-141.29;100.00;58932.97;5093357;28;20205;-73
2022/06/13 08:05:57;;;;;;;7.50;4.27;;;;;;;-141.29;100.00;58932.97;5092558;28;20205;-75
2022/06/13 08:08:24;;;;;;;6.63;4.50;;;;;;;-141.29;100.00;58932.97;5092590;28;20235;-75
2022/06/13 08:10:54;;;;;;;5.90;4.43;;;;;;;-141.29;100.00;58932.97;5092771;28;20206;-75
2022/06/13 08:13:23;;;;;;;6.40;4.40;;;;;;;-141.29;100.00;58932.97;5092751;28;20196;-75
2022/06/13 08:15:51;;;;;;;5.17;4.30;;;;;;;-141.29;100.00;58932.97;5092544;28;20196;-76
2022/06/13 08:18:19;;;;;;;6.50;3.97;;;;;;;-141.29;100.00;58932.97;5092713;28;20288;-75
2022/06/13 08:20:47;;;;;;;7.27;4.50;;;;;;;-141.29;100.00;58932.97;5092150;28;20244;-75
2022/06/13 08:23:16;;;;;;;6.00;3.90;;;;;;;-141.29;100.00;58932.97;5092474;28;20203;-75
2022/06/13 08:25:43;;;;;;;3.50;3.20;;;;;;;-141.29;100.00;58932.97;5092334;28;20210;-75
2022/06/13 08:28:13;;;;;;;4.27;3.40;;;;;;;-141.29;100.00;58932.97;5092030;28;20227;-75
2022/06/13 08:30:45;;;;;;;17.83;4.47;;;;;;;-141.29;100.00;58932.97;5091805;28;20209;-74
2022/06/13 08:33:13;;;;;;;3.87;3.53;;;;;;;-141.29;100.00;58932.97;5092343;28;20200;-73
2022/06/13 08:35:41;;;;;;;10.90;3.50;;;;;;;-141.29;100.00;58932.97;5078150;28;20204;-76
2022/06/13 08:38:08;;;;;;;5.27;3.70;;;;;;;-141.29;100.00;58932.97;5091659;28;20238;-77
2022/06/13 08:40:40;;;;;;;3.20;2.93;;;;;;;-141.29;100.00;58932.97;5092000;28;20707;-75
2022/06/13 08:43:24;;;;;;;7.20;3.67;;;;;;;-141.29;100.00;58932.97;5087144;28;20587;-75
2022/06/13 08:45:59;;;;;;;7.87;4.23;;;;;;;-141.29;100.00;58932.97;5084973;28;20229;-75
2022/06/13 08:48:36;;;;;;;7.63;4.50;;;;;;;-141.29;100.00;58932.97;5092437;28;20275;-75
2022/06/13 08:51:09;;;;;;;7.20;3.70;;;;;;;-141.29;100.00;58932.97;5091736;28;20266;-74
2022/06/13 08:53:45;;;;;;;10.43;4.30;;;;;;;-141.29;100.00;58932.97;5092003;28;20696;-74
2022/06/13 08:56:15;;;;;;;5.83;3.97;;;;;;;-141.29;100.00;58932.97;5091636;28;20668;-75
2022/06/13 08:58:51;;;;;;;4.03;3.63;;;;;;;-141.29;100.00;58932.97;5091187;28;20290;-74
2022/06/13 09:01:24;;;;;;;4.07;3.40;;;;;;;-141.29;100.00;58932.97;5091825;28;20268;-75
2022/06/13 09:03:59;;;;;;;5.87;3.50;;;;;;;-141.29;100.00;58932.97;5091800;28;20217;-75
2022/06/13 09:06:32;;;;;;;6.13;3.80;;;;;;;-141.29;100.00;58932.97;5091615;28;20667;-75
2022/06/13 09:09:05;;;;;;;5.70;4.30;;;;;;;-141.29;100.00;58932.97;5091416;28;20219;-76
2022/06/13 09:11:39;;;;;;;5.27;3.97;;;;;;;-141.29;100.00;58932.97;5091783;28;20230;-75
2022/06/13 09:14:15;;;;;;;4.73;3.73;;;;;;;-141.29;100.00;58932.97;5091555;28;20191;-74
2022/06/13 09:16:50;;;;;;;4.47;3.70;;;;;;;-141.29;100.00;58932.97;5091387;28;20205;-77
2022/06/13 09:19:32;;;;;;;8.40;4.27;;;;;;;-141.29;100.00;58932.97;5091425;28;20203;-75
2022/06/13 09:22:06;;;;;;;10.50;3.97;;;;;;;-141.29;100.00;58932.97;5091227;28;20617;-74
2022/06/13 09:24:41;;;;;;;7.97;3.87;;;;;;;-141.29;100.00;58932.97;5091424;28;20200;-76
2022/06/13 09:27:14;;;;;;;5.23;3.40;;;;;;;-141.29;100.00;58932.97;5091059;28;20277;-75
2022/06/13 09:29:55;;;;;;;4.13;3.83;;;;;;;-141.29;100.00;58932.97;5091126;28;20709;-74
2022/06/13 09:32:28;;;;;;;5.23;4.20;;;;;;;-141.29;100.00;58932.97;5091558;28;20199;-75
2022/06/13 09:35:00;;;;;;;4.10;3.70;;;;;;;-141.29;100.00;58932.97;5091409;28;20287;-74
2022/06/13 09:37:33;;;;;;;4.33;3.87;;;;;;;-141.29;100.00;58932.97;5090921;28;20227;-74
2022/06/13 09:40:00;;;;;;;6.90;3.70;;;;;;;-141.29;100.00;58932.97;5090975;28;20616;-74
2022/06/13 09:42:42;;;;;;;3.93;3.53;;;;;;;-141.29;100.00;58932.97;5095514;28;20275;-75
2022/06/13 09:45:45;;;;;;;4.83;3.97;;;;;;;-141.29;100.00;58932.97;5095745;28;20410;-75
2022/06/13 09:48:39;;;;;;;6.43;4.13;;;;;;;-141.29;100.00;58932.97;5092792;28;20303;-74
2022/06/13 09:51:15;;;;;;;7.40;3.90;;;;;;;-141.29;100.00;58932.97;5084261;28;20306;-76
2022/06/13 09:53:51;;;;;;;7.73;4.20;;;;;;;-141.29;100.00;58932.97;5095252;28;20602;-74
2022/06/13 09:56:27;;;;;;;5.93;4.00;;;;;;;-141.29;100.00;58932.97;5095336;28;20199;-75
2022/06/13 09:59:02;;;;;;;4.93;4.40;;;;;;;-141.29;100.00;58932.97;5094114;28;20213;-76
2022/06/13 10:01:34;;;;;;;8.20;3.93;;;;;;;-141.29;100.00;58932.97;5095197;28;20195;-75
2022/06/13 10:04:11;;;;;;;5.20;4.07;;;;;;;-141.29;100.00;58932.97;5094968;28;20200;-76
2022/06/13 10:06:42;;;;;;;5.57;4.43;;;;;;;-141.29;100.00;58932.97;5095195;28;20203;-74
2022/06/13 10:09:22;;;;;;;3.97;3.57;;;;;;;-141.29;100.00;58932.97;5094829;28;20231;-75
2022/06/13 10:11:57;;;;;;;10.60;4.73;;;;;;;-141.29;100.00;58932.97;5094861;28;20669;-75
2022/06/13 10:14:45;;;;;;;7.03;4.27;;;;;;;-141.29;100.00;58932.97;5094716;28;20263;-75
2022/06/13 10:17:33;;;;;;;6.57;4.23;;;;;;;-141.29;100.00;58932.97;5093412;28;20203;-74
2022/06/13 10:20:20;;;;;;;8.17;4.53;;;;;;;-141.29;100.00;58932.97;5095543;28;20208;-75
2022/06/13 10:22:56;;;;;;;6.87;4.67;;;;;;;-141.29;100.00;58932.97;5095204;28;20272;-76
2022/06/13 10:25:36;;;;;;;5.30;4.20;;;;;;;-141.29;100.00;58932.97;5094453;28;20204;-75
2022/06/13 10:28:17;;;;;;;7.73;4.43;;;;;;;-141.29;100.00;58932.97;5082052;28;20280;-74
2022/06/13 10:30:55;;;;;;;10.50;4.60;;;;;;;-141.29;100.00;58932.97;5094823;28;20206;-75
2022/06/13 10:33:32;;;;;;;6.20;3.80;;;;;;;-141.29;100.00;58932.97;5095106;28;20203;-74
2022/06/13 10:36:10;;;;;;;7.90;4.10;;;;;;;-141.29;100.00;58932.97;5094617;28;20196;-75
2022/06/13 10:38:51;;;;;;;7.63;4.00;;;;;;;-141.29;100.00;58932.97;5094979;28;20195;-73
2022/06/13 10:41:19;;;;;;;5.27;4.40;;;;;;;-141.29;100.00;58932.97;5081846;28;20195;-75
2022/06/13 10:43:45;;;;;;;5.50;4.70;;;;;;;-141.29;100.00;58932.97;5094252;28;20200;-74
2022/06/13 10:46:14;;;;;;;6.03;4.70;;;;;;;-141.29;100.00;58932.97;5094092;28;20206;-74
2022/06/13 10:48:48;;;;;;;8.23;4.70;;;;;;;-141.29;100.00;58932.97;5093973;28;20778;-75
2022/06/13 10:51:17;;;;;;;8.10;5.20;;;;;;;-141.29;100.00;58932.97;5094160;28;20663;-74
2022/06/13 10:53:49;;;;;;;10.57;4.93;;;;;;;-141.29;100.00;58932.97;5093341;28;20666;-75
2022/06/13 10:56:20;;;;;;;8.83;4.83;;;;;;;-141.29;100.00;58932.97;5094203;28;20200;-74
2022/06/13 10:58:49;;;;;;;8.13;4.90;;;;;;;-141.29;100.00;58932.97;5093046;28;20203;-74
2022/06/13 11:01:18;;;;;;;7.70;4.37;;;;;;;-141.29;100.00;58932.97;5093884;28;20245;-76
2022/06/13 11:04:00;;;;;;;6.93;5.03;;;;;;;-141.29;100.00;58932.97;5094297;28;20231;-75
2022/06/13 11:06:38;;;;;;;9.50;4.60;;;;;;;-141.29;100.00;58932.97;5094340;28;20207;-75
2022/06/13 11:09:18;;;;;;;5.27;4.73;;;;;;;-141.29;100.00;58932.97;5093867;28;20235;-74
2022/06/13 11:11:45;;;;;;;5.03;4.53;;;;;;;-141.29;100.00;58932.97;5093755;28;20195;-75
2022/06/13 11:14:35;;;;;;;4.77;4.10;;;;;;;-141.29;100.00;58932.97;5093589;28;20207;-74
2022/06/13 11:22:40;;;;;;;8.47;5.13;;;;;;;-141.29;100.00;58932.97;5093626;28;20324;-75
2022/06/13 11:25:19;;;;;;;7.33;4.80;;;;;;;-141.29;100.00;58932.97;5093503;28;20694;-75
2022/06/13 11:27:48;;;;;;;7.70;5.03;;;;;;;-141.29;100.00;58932.97;5079729;28;20597;-75
2022/06/13 11:30:36;;;;;;;7.43;4.67;;;;;;;-141.29;100.00;58932.97;5093194;28;20202;-77
2022/06/13 11:33:06;;;;;;;7.87;4.83;;;;;;;-141.29;100.00;58932.97;5093313;28;20245;-75
2022/06/13 11:35:38;;;;;;;5.20;4.70;;;;;;;-141.29;100.00;58932.97;5094502;28;20278;-75
2022/06/13 11:38:18;;;;;;;5.50;5.00;;;;;;;-141.29;100.00;58932.97;5094867;28;20288;-75
2022/06/13 11:40:48;;;;;;;5.77;4.30;;;;;;;-141.29;100.00;58932.97;5093225;28;20602;-74
2022/06/13 11:43:19;;;;;;;9.50;5.07;;;;;;;-141.29;100.00;58932.97;5093317;28;20204;-76
2022/06/13 11:45:56;;;;;;;8.30;4.83;;;;;;;-141.29;100.00;58932.97;5093232;28;20245;-75